This is the latest recevied weather packets stored in our database for station/object K3BAY-1. If no packets are shown the sender has not sent any weather packets the latest 10 day(s).
| Time | Temp. | Humidity | Pressure | Rain* | Wind** | Luminosity | Snow |
|---|---|---|---|---|---|---|---|
| 1777836692 | 17.78° C | 34% | 1015.9 hPa | 0 mm | - | 627 W/m² | - |
| 1777836388 | 17.22° C | 35% | 1015.6 hPa | 0 mm | - | 138 W/m² | - |
| 1777835175 | 17.22° C | 35% | 1015.9 hPa | 0 mm | - | 693 W/m² | - |
| 1777834569 | 16.67° C | 38% | 1015.6 hPa | 0 mm | - | 719 W/m² | - |
| 1777833661 | 16.11° C | 34% | 1015.9 hPa | 0 mm | - | 755 W/m² | - |
| 1777833358 | 16.11° C | 40% | 1015.9 hPa | 0 mm | - | 750 W/m² | - |
| 1777833055 | 15.56° C | 39% | 1015.9 hPa | 0 mm | - | 131 W/m² | - |
| 1777832148 | 16.67° C | 38% | 1015.6 hPa | 0 mm | - | 769 W/m² | - |
| 1777830936 | 15.56° C | 39% | 1014.9 hPa | 0 mm | - | 723 W/m² | - |
| 1777828207 | 15° C | 39% | 1015.3 hPa | 0 mm | - | 168 W/m² | - |
| 1777826994 | 14.44° C | 38% | 1015.3 hPa | 0 mm | - | 441 W/m² | - |
| 1777825479 | 13.89° C | 41% | 1015.3 hPa | 0 mm | - | 51 W/m² | - |
| 1777824873 | 13.33° C | 43% | 1015.3 hPa | 0 mm | - | 46 W/m² | - |
| 1777821540 | 11.67° C | 46% | 1014.6 hPa | 0 mm | - | 54 W/m² | - |
| 1777817904 | 10° C | 55% | 1014.2 hPa | 0 mm | - | 63 W/m² | - |
| 1777817602 | 11.11° C | 48% | 1014.2 hPa | 0 mm | - | 69 W/m² | - |
| 1777817298 | 10.56° C | 50% | 1014.6 hPa | 0 mm | - | 53 W/m² | - |
| 1777816087 | 10.56° C | 50% | 1014.6 hPa | 0 mm | - | 47 W/m² | - |
| 1777815481 | 9.44° C | 56% | 1014.9 hPa | 0 mm | - | 40 W/m² | - |
| 1777814268 | 10° C | 55% | 1015.3 hPa | 0 mm | - | 39 W/m² | - |
| 1777813360 | 9.44° C | 58% | 1013.6 hPa | 0 mm | - | 39 W/m² | - |
| 1777812451 | 8.89° C | 60% | 1013.6 hPa | 0 mm | - | 37 W/m² | - |
| 1777811847 | 8.89° C | 60% | 1013.9 hPa | 0 mm | - | 36 W/m² | - |
| 1777811240 | 8.89° C | 60% | 1014.2 hPa | 0 mm | - | 143 W/m² | - |
| 1777810938 | 8.33° C | 62% | 1014.6 hPa | 0 mm | - | 123 W/m² | - |
* Rain latest hour (hover to see other rain measurements)
** Current wind speed in m/s (hover to see current wind gust speed)